Kanton St. Gallen; A1 Lützelmurgbrücke bei (75) Matzingen (Blickrichtung Zürich) A1 Thal (Blickrichtung St. Margrethen/Bregenz AT) Webcams A2: Kanton Luzern; A2 Knutwil (Blickrichtung Basel) A2 Rothenburg (Blickrichtung Gotthard) A2 Verzweigung Rotsee (Blickrichtung Basel)

9027, St. Gallen (Ostschweiz / FL) Städte & Dörfer Blick auf das Kloster und auf den Klosterplatz St. Gallen – Schweiz (UNESCO-Weltkulturerbe).

Roman Bürki spielt seine fünfte Saison für Borussia Dortmund. Seitdem wechseln sich beim 29-jährigen BVB-Torhüter starke mit.

Live Cam Sa Coma Sahnehang Live Cam sahnehang winterberg köhlerhütte Amateur Videos Porno 2006 war ein besonderes Jahr für das Internet. Der erste Tweet wurde getweetet, Google kaufte YouTube, Facebook enthüllte. Live Of Campus Richtige Campus-Atmosphäre können Schulabgänger in Weihenstephan wegen der Corona-Krise derzeit nicht erleben, denn das. Auf Katja Krasavice Wixen Katja Krasavice

webcam st gallen klosterplatz

Roman Bürki spielt seine fünfte Saison für Borussia Dortmund. Seitdem wechseln sich beim 29-jährigen BVB-Torhüter starke mit.

Chat Mit Cam Kostenlos Wardenburg Aufgrund der Corona-Sicherheitsbestimmungen dürfen die Jugendtreffs in den Gemeindehäusern und im Bauwagen derzeit. Kostenlos chatten und neue Freunde finden. COOLER CHAT. Spaß haben und jede Menge Leute kennenlernen – völlig anonym. CHAT, FLIRT, DATE. Mit deinem eigenem Fotoprofil und vielen kostenlosen Extras wie Gewinnspiele, Quiz, usw. JUGENDSCHUTZ. Moderatoren achten

Der ganz grosse Befreiungsschlag ist es noch nicht. Wohl aber ein entscheidender erster Schritt für die Kulturszene, die.

Knapp zwei Monate sind noch Zeit bis am 24. Juli die Preisträger des Augsburger Medienpreises prämiert werden.  Mit mehr als.

Knapp zwei Monate sind noch Zeit bis am 24. Juli die Preisträger des Augsburger Medienpreises prämiert werden.  Mit mehr als.

The canton of St. Gallen is situated in northeastern Switzerland. It is also called canton of St Gall ( Kanton St. Gallen; canton de Saint-Gall ). The administrative division borders the lakes Constance (Bodensee) in the north, the Lake Obersee in the southwest and the Lake Walensee in the southeast.

Live Cam Airport Hamburg Flughafen Hamburg – Ankunft Live – Startseite Suche Ankunft Live. nach unten; nach oben; Ankunft Live; Suchergebnis. Ankunft Live; Abflug Live (13) Heute. Ankunft Aus (via) Flug Terminal Erwartet Status Info; 09:30 : München – MUC LH 2050: Terminal 1: LH 2050 (Lufthansa) 11:50: Amsterdam – AMS KL 1779: Terminal

Der ganz grosse Befreiungsschlag ist es noch nicht. Wohl aber ein entscheidender erster Schritt für die Kulturszene, die.

Webcam Flughafen St.Gallen-Altenrhein Live-Bilder und Zeitraffer LSZR / ACH. Live aus Altenrhein. LIVE LSZR 091750Z AUTO 27005KT 9999 BKN044 BKN055 16/12 Q1012 Zeitraffer heute. 2020-06-09 00:14:32 LSZR 082150Z AUTO VRB01KT 8000 RA BKN055 12/11 Q1013 Destinationen ab.

My Free Cam Token Cost Posted by admin March 3, 2020 Posted in chaterbaet, myfreecams token cost, nude live chat Tags: chat uzivo, chaturbate alternative, chaturbate fuck, free webcam models, group cam chat, hooker sex, interactive sex stories, live sex show, r tiny tits, www.chatubate.com Leave a comment on Venus lova anal fucked Best Blondie

webcam st gallen klosterplatz

Tiefgarage live anzuschauen.

Kantonsspital St.Gallen Departement Bau und Raum Haus 38 Rorschacher Strasse 95 CH-9007 St.Gallen Telefon: +41 71 494 22 16 [email protected] Departement Bau und Raum. Über die gesamte Seite suchen Suche schliessen. Wir verwenden Cookies und Tracking-Technologien gemäss unserer Datenschutz- bestimmungen, um Ihnen die bestmögliche Web.

webcam sankt gallen

Gratis Frauen Nackt Ein Mann verliebt sich in eine Frau, die ihm vorspielt eine andere zu sein. Nachdem sie sich vor seinen Augen umgebracht hat, Gratis sex alte frau erwachsenen sex mit Alten Frauen im Badezimmer Qualität, in der Küche und heißesten Porno Videos. als Bookmark : Heisse Porno Bilder alten Frauen HD

Moritz Schmid und der Musiker Aaron aus Rapperswil wollen das erste Livestream-Open-Air der Schweiz organisieren. Durch die.

Webcam St. Gallenkirch – Silvretta Montafon: Alle Informationen zur Live Webcams Silvretta Montafon. Sie erhalten Wintersport-Infos zu Cam in Silvretta Montafon, zu Wetterkamera in Silvretta Montafon und Livebilder Silvretta Montafon.

Kanton St. Gallen; A1 Lützelmurgbrücke bei (75) Matzingen (Blickrichtung Zürich) A1 Thal (Blickrichtung St. Margrethen/Bregenz AT) Webcams A2: Kanton Luzern; A2 Knutwil (Blickrichtung Basel) A2 Rothenburg (Blickrichtung Gotthard) A2 Verzweigung Rotsee (Blickrichtung Basel)

Fintechnews.ch interviewt in einer Serie von Kurz-Interviews bekannte Schweizer Fintech Influenzer. Heute sprechen wir mit.

webcam sankt gallen

Webcam Flughafen St.Gallen-Altenrhein Live-Bilder und Zeitraffer LSZR / ACH. Live aus Altenrhein. LIVE LSZR 041020Z VRB01KT 9999 -RA BKN060 16/14 Q0999 NOSIG RMK D Zeitraffer heute. 2020-06-04 00:13:55 LSZR 032150Z AUTO 15006KT 120V190 9999 SCT090 BKN100 19/09 Q1003 Destinationen ab. Der ganz grosse Befreiungsschlag ist es noch nicht. Wohl aber ein entscheidender.

webcam sankt gallen. Ja, es soll weitergespielt werden. So der Entscheid der Mehrheit (17 Ja-Stimmen, 2 Nein-Stimmen und eine Enthaltung) der 20. Der Kulturbranche, den verbundenen Unternehmen sowie Künstlerinnen und Künstlern wurde Ende Februar durch das. altenmarkt st gallen webcam. Die Qualität in der Breite kann den Dreikampf um die Meisterschaft am Ende entscheiden. Auch die Situation.

Die 20 Klubs der Super- und Challenge League haben sich an einer ausserordentlichen Generalversammlung in Bern für eine.

Webcam Flughafen St.Gallen-Altenrhein Live-Bilder und Zeitraffer LSZR / ACH. Live aus Altenrhein. LIVE LSZR 041020Z VRB01KT 9999 -RA BKN060 16/14 Q0999 NOSIG RMK D Zeitraffer heute. 2020-06-04 00:13:55 LSZR 032150Z AUTO 15006KT 120V190 9999 SCT090 BKN100 19/09 Q1003 Destinationen ab. Der ganz grosse Befreiungsschlag ist es noch nicht. Wohl aber ein entscheidender.

Live aus der Kathedrale St. GallenWetter-Webcams in der Region St. Gallen – Webcams zeigen das Wetter live und aktuell vor Ort. Alle Cams sind auswählbar auf einer anschaulichen Karte von wetteronline.de

Der Name der Stadt St. Gallen, geht auf den irischen Wandermönch Gallus zurück, der vom Bodensee her ins Hochtal der Steinach wanderte. Das von ihm gegründete Kloster, das im 7 Jahrhundert entstand, beherbergte und pflegte Kunst und Wissenschaft in einem umfangreichen Maß. Bis heute können in der weltberühmten Stiftsbibliothek – Zeugnisse früherer Zeiten bestaunt werden. Mehrere Webcams.

Die 20 Klubs der Super- und Challenge League haben sich an einer ausserordentlichen Generalversammlung in Bern für eine.

Chatseiten Ab 16 My Free Cam Token Cost Posted by admin March 3, 2020 Posted in chaterbaet, myfreecams token cost, nude live chat Tags: chat uzivo, chaturbate alternative, chaturbate fuck, free webcam models, group cam chat, hooker sex, interactive sex stories, live sex show, r tiny tits, www.chatubate.com Leave a comment on Venus

Altenrhein: Flugplatz Sankt Gallen-Altenrhein. Schweiz › Ostschweiz / FL › Altenrhein (9423, St. Gallen).

404 Meter über Meer Webcam auf den Flugplatz St. Gallen-Altenrhein Mehr: Neustes Bild. Standort. Vollbild. Feedback geben Quelle: www.peoplesbusinessairport.ch </> Webcam in Webseite/App einbinden . Player <> Einbetten. Teilen: Altenrhein: Wetter by wetter.com. Dienstag.

Kanton St. Gallen; A1 Lützelmurgbrücke bei (75) Matzingen (Blickrichtung Zürich) A1 Thal (Blickrichtung St. Margrethen/Bregenz AT) Webcams A2: Kanton Luzern; A2 Knutwil (Blickrichtung Basel) A2 Rothenburg (Blickrichtung Gotthard) A2 Verzweigung Rotsee (Blickrichtung Basel)

Moritz Schmid und der Musiker Aaron aus Rapperswil wollen das erste Livestream-Open-Air der Schweiz organisieren. Durch die.

Tiefgarage live anzuschauen.

Kantonsspital St.Gallen Departement Bau und Raum Haus 38 Rorschacher Strasse 95 CH-9007 St.Gallen Telefon: +41 71 494 22 16 [email protected] Departement Bau und Raum. Über die gesamte Seite suchen Suche schliessen. Wir verwenden Cookies und Tracking-Technologien gemäss unserer Datenschutz- bestimmungen, um Ihnen die bestmögliche Web.

Was die «Null Stern»-Erfinder vor 4 Jahren mit der Landversion des Konzepts «Null Stern – the only star is you» (Video,

Fintechnews.ch interviewt in einer Serie von Kurz-Interviews bekannte Schweizer Fintech Influenzer. Heute sprechen wir mit.

Was die «Null Stern»-Erfinder vor 4 Jahren mit der Landversion des Konzepts «Null Stern – the only star is you» (Video,

Wie ist das Wetter in der Region St.Gallen-Bodensee? Webcams im Überblick.